Time;durP1;ratioP1;P1;durP2;ratioP2;P2;SDS_P1;SDS_P2;PMS_P1;PMS_P2;Temp;Humidity;BMP_temperature;BMP_pressure;BME280_temperature;BME280_humidity;BME280_pressure;Samples;Min_cycle;Max_cycle;Signal;HPM_P1;HPM_P2
2022/04/24 00:01:22;;;;;;;5.00;4.50;;;;;;;-150.27;100.00;61272.81;5208746;28;20407;-76
2022/04/24 00:03:54;;;;;;;6.00;4.70;;;;;;;-150.27;100.00;61272.81;5220909;28;20053;-76
2022/04/24 00:06:25;;;;;;;4.60;4.13;;;;;;;-150.27;100.00;61272.81;5232053;28;20515;-77
2022/04/24 00:08:56;;;;;;;5.63;4.80;;;;;;;-150.27;100.00;61272.81;5229899;28;20553;-76
2022/04/24 00:11:30;;;;;;;6.60;4.47;;;;;;;-150.27;100.00;61272.81;5227884;28;20026;-77
2022/04/24 00:14:07;;;;;;;4.70;4.30;;;;;;;-150.27;100.00;61272.81;5227893;28;20468;-77
2022/04/24 00:16:39;;;;;;;5.93;4.13;;;;;;;-150.27;100.00;61272.81;5229049;28;20115;-76
2022/04/24 00:19:11;;;;;;;5.77;4.23;;;;;;;-150.27;100.00;61272.81;5210115;28;20036;-76
2022/04/24 00:21:42;;;;;;;5.37;4.53;;;;;;;-150.27;100.00;61272.81;5228407;28;20026;-76
2022/04/24 00:24:14;;;;;;;7.83;3.93;;;;;;;-150.27;100.00;61272.81;5228113;28;20030;-76
2022/04/24 00:26:45;;;;;;;6.50;4.63;;;;;;;-150.27;100.00;61272.81;5226796;28;20014;-72
2022/04/24 00:29:16;;;;;;;6.77;4.53;;;;;;;-150.27;100.00;61272.81;5210692;28;20090;-77
2022/04/24 00:31:48;;;;;;;4.57;4.10;;;;;;;-150.27;100.00;61272.81;5227675;28;20021;-77
2022/04/24 00:34:19;;;;;;;6.00;4.60;;;;;;;-150.27;100.00;61272.81;5228452;28;20030;-76
2022/04/24 00:36:50;;;;;;;5.53;4.53;;;;;;;-150.27;100.00;61272.81;5228104;28;20045;-76
2022/04/24 00:39:22;;;;;;;4.50;4.03;;;;;;;-150.27;100.00;61272.81;5228193;28;20037;-76
2022/04/24 00:41:53;;;;;;;4.93;4.43;;;;;;;-150.27;100.00;61272.81;5228934;28;20033;-76
2022/04/24 00:44:24;;;;;;;4.70;4.20;;;;;;;-150.27;100.00;61272.81;5230001;28;20095;-77
2022/04/24 00:47:00;;;;;;;7.10;4.53;;;;;;;-150.27;100.00;61272.81;5227990;28;20021;-77
2022/04/24 00:49:31;;;;;;;8.60;4.90;;;;;;;-150.27;100.00;61272.81;5227426;28;20037;-76
2022/04/24 00:52:04;;;;;;;4.87;4.37;;;;;;;-150.27;100.00;61272.81;5228431;28;20595;-76
2022/04/24 00:54:35;;;;;;;5.17;4.50;;;;;;;-150.27;100.00;61272.81;5227504;28;20021;-76
2022/04/24 00:57:09;;;;;;;5.57;5.00;;;;;;;-150.27;100.00;61272.81;5209039;28;20100;-76
2022/04/24 00:59:40;;;;;;;5.87;4.50;;;;;;;-150.27;100.00;61272.81;5209924;28;20030;-76
2022/04/24 01:02:12;;;;;;;5.03;4.50;;;;;;;-150.27;100.00;61272.81;5226214;28;20095;-74
2022/04/24 01:04:43;;;;;;;7.37;5.03;;;;;;;-150.27;100.00;61272.81;5228157;28;20734;-76
2022/04/24 01:07:15;;;;;;;9.70;4.60;;;;;;;-150.27;100.00;61272.81;5227210;28;20546;-73
2022/04/24 01:09:46;;;;;;;5.43;4.93;;;;;;;-150.27;100.00;61272.81;5227250;22;20491;-76
2022/04/24 01:12:17;;;;;;;6.00;4.70;;;;;;;-150.27;100.00;61272.81;5226194;28;20037;-77
2022/04/24 01:14:48;;;;;;;5.83;5.23;;;;;;;-150.27;100.00;61272.81;5211018;28;20036;-76
2022/04/24 01:17:20;;;;;;;4.87;4.47;;;;;;;-150.27;100.00;61272.81;5227791;28;20113;-76
2022/04/24 01:19:53;;;;;;;5.57;4.60;;;;;;;-150.27;100.00;61272.81;5227117;28;20022;-76
2022/04/24 01:22:25;;;;;;;7.43;5.33;;;;;;;-150.27;100.00;61272.81;5227431;28;20566;-76
2022/04/24 01:24:56;;;;;;;7.93;5.47;;;;;;;-150.27;100.00;61272.81;5226785;28;20026;-76
2022/04/24 01:27:27;;;;;;;5.27;4.37;;;;;;;-150.27;100.00;61272.81;5226756;28;20361;-76
2022/04/24 01:29:59;;;;;;;6.67;4.93;;;;;;;-150.27;100.00;61272.81;5226977;28;20037;-77
2022/04/24 01:32:30;;;;;;;6.47;5.10;;;;;;;-150.27;100.00;61272.81;5227264;28;20450;-77
2022/04/24 01:35:02;;;;;;;5.87;5.27;;;;;;;-150.27;100.00;61272.81;5227513;28;20468;-76
2022/04/24 01:37:34;;;;;;;6.97;5.60;;;;;;;-150.27;100.00;61272.81;5226645;28;20458;-77
2022/04/24 01:40:05;;;;;;;5.20;4.70;;;;;;;-150.27;100.00;61272.81;5227357;28;20053;-77
2022/04/24 01:42:37;;;;;;;7.63;4.67;;;;;;;-150.27;100.00;61272.81;5226411;28;20029;-77
2022/04/24 01:45:08;;;;;;;6.40;5.33;;;;;;;-150.27;100.00;61272.81;5227053;28;20034;-76
2022/04/24 01:47:39;;;;;;;6.17;5.57;;;;;;;-150.27;100.00;61272.81;5209158;28;20033;-77
2022/04/24 01:50:10;;;;;;;5.37;4.87;;;;;;;-150.27;100.00;61272.81;5227288;28;20021;-76
2022/04/24 01:52:42;;;;;;;5.73;5.20;;;;;;;-150.27;100.00;61272.81;5209523;28;20044;-77
2022/04/24 01:55:13;;;;;;;7.33;5.07;;;;;;;-150.27;100.00;61272.81;5226970;28;20118;-77
2022/04/24 01:57:44;;;;;;;6.10;5.50;;;;;;;-150.27;100.00;61272.81;5226484;28;20379;-77
2022/04/24 02:00:16;;;;;;;6.63;5.93;;;;;;;-150.27;100.00;61272.81;5226410;28;20136;-77
2022/04/24 02:02:47;;;;;;;6.57;4.60;;;;;;;-150.27;100.00;61272.81;5228157;28;20042;-77
2022/04/24 02:05:19;;;;;;;6.37;5.70;;;;;;;-150.27;100.00;61272.81;5229700;28;20516;-76
2022/04/24 02:07:50;;;;;;;5.97;5.30;;;;;;;-150.27;100.00;61272.81;5226743;28;20040;-76
2022/04/24 02:10:21;;;;;;;5.97;5.37;;;;;;;-150.27;100.00;61272.81;5227115;28;20823;-76
2022/04/24 02:12:52;;;;;;;5.90;5.30;;;;;;;-150.27;100.00;61272.81;5226105;28;20026;-76
2022/04/24 02:15:24;;;;;;;5.70;4.83;;;;;;;-150.27;100.00;61272.81;5230381;28;20041;-76
2022/04/24 02:17:56;;;;;;;9.33;4.67;;;;;;;-150.27;100.00;61272.81;5230348;28;20604;-76
2022/04/24 02:20:30;;;;;;;6.93;5.43;;;;;;;-150.27;100.00;61272.81;5212971;28;20029;-77
2022/04/24 02:23:02;;;;;;;6.33;5.07;;;;;;;-150.27;100.00;61272.81;5230283;28;20499;-77
2022/04/24 02:25:34;;;;;;;7.03;5.40;;;;;;;-150.27;100.00;61272.81;5230543;28;20029;-77
2022/04/24 02:28:05;;;;;;;6.67;5.43;;;;;;;-150.27;100.00;61272.81;5229845;28;20135;-76
2022/04/24 02:30:37;;;;;;;6.20;5.57;;;;;;;-150.27;100.00;61272.81;5230861;28;20663;-76
2022/04/24 02:33:09;;;;;;;7.07;5.37;;;;;;;-150.27;100.00;61272.81;5230579;28;20030;-76
2022/04/24 02:35:40;;;;;;;6.57;5.43;;;;;;;-150.27;100.00;61272.81;5229825;28;20092;-76
2022/04/24 02:38:12;;;;;;;6.00;5.40;;;;;;;-150.27;100.00;61272.81;5213343;28;20643;-76
2022/04/24 02:40:43;;;;;;;6.43;5.00;;;;;;;-150.27;100.00;61272.81;5211210;28;20025;-76
2022/04/24 02:43:14;;;;;;;6.40;5.80;;;;;;;-150.27;100.00;61272.81;5230471;28;20022;-76
2022/04/24 02:45:46;;;;;;;6.43;5.43;;;;;;;-150.27;100.00;61272.81;5212130;28;20037;-76
2022/04/24 02:48:18;;;;;;;6.93;6.10;;;;;;;-150.27;100.00;61272.81;5230872;28;20049;-76
2022/04/24 02:50:49;;;;;;;6.47;5.37;;;;;;;-150.27;100.00;61272.81;5212578;28;20018;-76
2022/04/24 02:53:20;;;;;;;6.77;5.93;;;;;;;-150.27;100.00;61272.81;5232218;28;20034;-76
2022/04/24 02:55:51;;;;;;;10.03;7.13;;;;;;;-150.27;100.00;61272.81;5230619;28;20060;-76
2022/04/24 02:58:23;;;;;;;9.07;6.47;;;;;;;-150.27;100.00;61272.81;5230506;28;20040;-76
2022/04/24 03:00:56;;;;;;;7.90;6.20;;;;;;;-150.27;100.00;61272.81;5229984;28;20576;-76
2022/04/24 03:03:28;;;;;;;7.10;6.43;;;;;;;-150.27;100.00;61272.81;5229509;28;20051;-77
2022/04/24 03:05:59;;;;;;;7.63;6.40;;;;;;;-150.27;100.00;61272.81;5212007;28;20481;-76
2022/04/24 03:08:31;;;;;;;7.13;6.43;;;;;;;-150.27;100.00;61272.81;5230113;28;20037;-76
2022/04/24 03:11:02;;;;;;;6.50;5.90;;;;;;;-150.27;100.00;61272.81;5228365;28;20033;-77
2022/04/24 03:13:34;;;;;;;6.97;6.20;;;;;;;-150.27;100.00;61272.81;5230076;28;20487;-76
2022/04/24 03:16:05;;;;;;;7.07;6.33;;;;;;;-150.27;100.00;61272.81;5229016;28;20300;-76
2022/04/24 03:18:36;;;;;;;10.13;7.40;;;;;;;-150.27;100.00;61272.81;5211866;28;20033;-76
2022/04/24 03:21:08;;;;;;;9.13;6.83;;;;;;;-150.27;100.00;61272.81;5211345;28;20072;-76
2022/04/24 03:23:39;;;;;;;7.50;6.70;;;;;;;-150.27;100.00;61272.81;5229923;28;20557;-76
2022/04/24 03:26:13;;;;;;;9.13;7.43;;;;;;;-150.27;100.00;61272.81;5227731;28;20483;-76
2022/04/24 03:28:45;;;;;;;7.65;6.95;;;;;;;-150.27;100.00;61272.81;5211440;28;20021;-76
2022/04/24 03:31:17;;;;;;;10.33;7.30;;;;;;;-150.27;100.00;61272.81;5229821;28;20453;-75
2022/04/24 03:33:48;;;;;;;7.33;6.23;;;;;;;-150.27;100.00;61272.81;5228564;28;20104;-75
2022/04/24 03:36:19;;;;;;;11.33;6.63;;;;;;;-150.27;100.00;61272.81;5229405;28;20526;-75
2022/04/24 03:38:51;;;;;;;9.27;6.87;;;;;;;-150.27;100.00;61272.81;5210833;28;21555;-76
2022/04/24 03:41:22;;;;;;;7.10;6.40;;;;;;;-150.27;100.00;61272.81;5228585;28;20026;-76
2022/04/24 03:43:53;;;;;;;7.27;6.57;;;;;;;-150.27;100.00;61272.81;5228746;28;20030;-76
2022/04/24 03:46:24;;;;;;;8.80;7.80;;;;;;;-150.27;100.00;61272.81;5211266;28;20127;-75
2022/04/24 03:48:56;;;;;;;10.17;7.50;;;;;;;-150.27;100.00;61272.81;5228795;28;20052;-75
2022/04/24 03:51:27;;;;;;;8.17;7.30;;;;;;;-150.27;100.00;61272.81;5229059;28;20029;-76
2022/04/24 03:53:58;;;;;;;8.30;7.00;;;;;;;-150.27;100.00;61272.81;5228733;28;20033;-76
2022/04/24 03:56:31;;;;;;;7.47;6.67;;;;;;;-150.27;100.00;61272.81;5210121;28;20025;-76
2022/04/24 03:59:02;;;;;;;11.80;7.33;;;;;;;-150.27;100.00;61272.81;5228668;28;20046;-76
2022/04/24 04:01:35;;;;;;;9.90;7.97;;;;;;;-150.27;100.00;61272.81;5228730;28;20512;-75
2022/04/24 04:04:07;;;;;;;9.10;7.60;;;;;;;-150.27;100.00;61272.81;5228260;28;20597;-76
2022/04/24 04:06:38;;;;;;;7.90;6.80;;;;;;;-150.27;100.00;61272.81;5229284;28;20040;-75
2022/04/24 04:09:10;;;;;;;10.47;7.93;;;;;;;-150.27;100.00;61272.81;5210194;28;20427;-75
2022/04/24 04:11:41;;;;;;;7.70;6.97;;;;;;;-150.27;100.00;61272.81;5210775;28;20104;-74
2022/04/24 04:14:13;;;;;;;9.37;8.40;;;;;;;-150.27;100.00;61272.81;5228586;28;20393;-75
2022/04/24 04:16:44;;;;;;;8.83;7.37;;;;;;;-150.27;100.00;61272.81;5228609;28;20033;-76
2022/04/24 04:19:16;;;;;;;8.27;7.47;;;;;;;-150.27;100.00;61272.81;5228420;28;20037;-76
2022/04/24 04:21:48;;;;;;;8.60;7.17;;;;;;;-150.27;100.00;61272.81;5209867;28;20029;-75
2022/04/24 04:24:19;;;;;;;8.53;7.67;;;;;;;-150.27;100.00;61272.81;5210718;28;20032;-76
2022/04/24 04:26:50;;;;;;;8.87;7.97;;;;;;;-150.27;100.00;61272.81;5227085;28;20037;-76
2022/04/24 04:29:21;;;;;;;8.87;7.57;;;;;;;-150.27;100.00;61272.81;5228584;28;20025;-76
2022/04/24 04:31:53;;;;;;;7.67;6.70;;;;;;;-150.27;100.00;61272.81;5227545;28;20036;-76
2022/04/24 04:34:24;;;;;;;9.13;7.73;;;;;;;-150.27;100.00;61272.81;5228293;28;20532;-75
2022/04/24 04:36:55;;;;;;;8.77;7.87;;;;;;;-150.27;100.00;61272.81;5227690;28;20750;-77
2022/04/24 04:39:27;;;;;;;12.40;7.60;;;;;;;-150.27;100.00;61272.81;5227804;28;20025;-77
2022/04/24 04:41:58;;;;;;;8.03;7.23;;;;;;;-150.27;100.00;61272.81;5227057;28;20030;-77
2022/04/24 04:44:29;;;;;;;9.37;8.33;;;;;;;-150.27;100.00;61272.81;5228087;28;20064;-76
2022/04/24 04:47:00;;;;;;;10.07;7.17;;;;;;;-150.27;100.00;61272.81;5227912;28;20107;-76
2022/04/24 04:49:32;;;;;;;10.33;8.03;;;;;;;-150.27;100.00;61272.81;5209638;28;20029;-76
2022/04/24 04:52:03;;;;;;;8.77;7.47;;;;;;;-150.27;100.00;61272.81;5210904;28;20388;-76
2022/04/24 04:54:35;;;;;;;8.93;7.40;;;;;;;-150.27;100.00;61272.81;5230656;28;20029;-77
2022/04/24 04:57:06;;;;;;;10.43;7.67;;;;;;;-150.27;100.00;61272.81;5227738;28;20048;-76
2022/04/24 04:59:37;;;;;;;8.57;7.67;;;;;;;-150.27;100.00;61272.81;5230874;28;20037;-74
2022/04/24 05:02:09;;;;;;;10.60;8.13;;;;;;;-150.27;100.00;61272.81;5229064;28;20041;-76
2022/04/24 05:04:43;;;;;;;8.77;7.47;;;;;;;-150.27;100.00;61272.81;5230970;28;20037;-75
2022/04/24 05:07:14;;;;;;;12.10;8.30;;;;;;;-150.27;100.00;61272.81;5227172;28;20044;-76
2022/04/24 05:09:45;;;;;;;8.37;7.40;;;;;;;-150.27;100.00;61272.81;5209463;28;20045;-75
2022/04/24 05:12:17;;;;;;;8.13;7.27;;;;;;;-150.27;100.00;61272.81;5226600;28;20029;-77
2022/04/24 05:14:48;;;;;;;8.73;7.50;;;;;;;-150.27;100.00;61272.81;5226703;28;20023;-77
2022/04/24 05:17:19;;;;;;;11.23;7.30;;;;;;;-150.27;100.00;61272.81;5230157;28;20104;-77
2022/04/24 05:19:50;;;;;;;9.43;7.60;;;;;;;-150.27;100.00;61272.81;5227702;28;20705;-77
2022/04/24 05:22:22;;;;;;;9.17;7.40;;;;;;;-150.27;100.00;61272.81;5227767;28;20044;-76
2022/04/24 05:24:54;;;;;;;8.57;7.20;;;;;;;-150.27;100.00;61272.81;5226398;28;20041;-77
2022/04/24 05:27:26;;;;;;;8.23;7.00;;;;;;;-150.27;100.00;61272.81;5208845;28;20029;-75
2022/04/24 05:29:58;;;;;;;10.33;7.00;;;;;;;-150.27;100.00;61272.81;5227257;28;20037;-77
2022/04/24 05:32:37;;;;;;;9.53;7.53;;;;;;;-150.27;100.00;61272.81;5226575;28;20855;-76
2022/04/24 05:35:09;;;;;;;11.97;7.50;;;;;;;-150.27;100.00;61272.81;5226819;28;20036;-76
2022/04/24 05:37:40;;;;;;;10.07;7.13;;;;;;;-150.27;100.00;61272.81;5226658;28;20030;-75
2022/04/24 05:40:12;;;;;;;10.73;7.07;;;;;;;-150.27;100.00;61272.81;5209204;28;20029;-76
2022/04/24 05:42:54;;;;;;;8.87;6.90;;;;;;;-150.27;100.00;61272.81;5209312;28;20040;-77
2022/04/24 05:45:25;;;;;;;8.60;7.70;;;;;;;-150.27;100.00;61272.81;5226981;28;20592;-76
2022/04/24 05:47:56;;;;;;;10.13;6.97;;;;;;;-150.27;100.00;61272.81;5227247;28;20100;-77
2022/04/24 05:50:28;;;;;;;7.43;6.73;;;;;;;-150.27;100.00;61272.81;5231104;28;20085;-77
2022/04/24 05:52:59;;;;;;;7.83;7.03;;;;;;;-150.27;100.00;61272.81;5230600;28;20073;-77
2022/04/24 05:55:31;;;;;;;10.03;7.30;;;;;;;-150.27;100.00;61272.81;5230793;28;20029;-77
2022/04/24 05:58:02;;;;;;;9.50;6.57;;;;;;;-150.27;100.00;61272.81;5230586;28;20079;-78
2022/04/24 06:00:36;;;;;;;8.97;7.07;;;;;;;-150.27;100.00;61272.81;5230838;28;20027;-77
2022/04/24 06:03:07;;;;;;;9.57;7.53;;;;;;;-150.27;100.00;61272.81;5230988;28;20036;-76
2022/04/24 06:05:39;;;;;;;9.47;7.37;;;;;;;-150.27;100.00;61272.81;5230738;28;20395;-76
2022/04/24 06:08:10;;;;;;;9.17;6.13;;;;;;;-150.27;100.00;61272.81;5230711;28;20106;-77
2022/04/24 06:10:42;;;;;;;8.23;7.33;;;;;;;-150.27;100.00;61272.81;5229422;28;20531;-77
2022/04/24 06:13:14;;;;;;;11.07;7.27;;;;;;;-150.27;100.00;61272.81;5231051;28;20657;-76
2022/04/24 06:15:45;;;;;;;12.73;7.67;;;;;;;-150.27;100.00;61272.81;5230891;28;20091;-73
2022/04/24 06:18:16;;;;;;;13.60;7.50;;;;;;;-150.27;100.00;61272.81;5230073;28;20033;-78
2022/04/24 06:20:47;;;;;;;9.07;7.43;;;;;;;-150.27;100.00;61272.81;5230577;28;20084;-77
2022/04/24 06:23:19;;;;;;;8.10;6.43;;;;;;;-150.27;100.00;61272.81;5212791;28;20056;-77
2022/04/24 06:25:50;;;;;;;9.80;6.97;;;;;;;-150.27;100.00;61272.81;5229534;28;20380;-76
2022/04/24 06:28:21;;;;;;;11.37;6.80;;;;;;;-150.27;100.00;61272.81;5229930;28;20029;-77
2022/04/24 06:30:53;;;;;;;7.27;6.20;;;;;;;-150.27;100.00;61272.81;5212686;28;20032;-77
2022/04/24 06:33:24;;;;;;;11.67;6.40;;;;;;;-150.27;100.00;61272.81;5229990;28;20033;-76
2022/04/24 06:35:55;;;;;;;7.53;6.60;;;;;;;-150.27;100.00;61272.81;5211789;28;20064;-76
2022/04/24 06:38:27;;;;;;;11.67;7.47;;;;;;;-150.27;100.00;61272.81;5230987;28;20491;-76
2022/04/24 06:40:58;;;;;;;11.03;7.17;;;;;;;-150.27;100.00;61272.81;5210971;28;20116;-76
2022/04/24 06:43:29;;;;;;;11.23;6.73;;;;;;;-150.27;100.00;61272.81;5230190;28;20656;-77
2022/04/24 06:46:00;;;;;;;9.77;6.70;;;;;;;-150.27;100.00;61272.81;5229699;28;20064;-77
2022/04/24 06:48:32;;;;;;;8.13;7.27;;;;;;;-150.27;100.00;61272.81;5212618;28;20037;-77
2022/04/24 06:51:03;;;;;;;6.80;6.10;;;;;;;-150.27;100.00;61272.81;5229744;28;20034;-77
2022/04/24 06:53:37;;;;;;;6.43;5.57;;;;;;;-150.27;100.00;61272.81;5229756;28;20554;-76
2022/04/24 06:56:09;;;;;;;;;;;;;;;-150.27;100.00;61272.81;5211702;28;20112;-76
2022/04/24 06:58:40;;;;;;;9.10;6.27;;;;;;;-150.27;100.00;61272.81;5229896;28;19919;-76
2022/04/24 07:01:11;;;;;;;10.83;6.47;;;;;;;-150.27;100.00;61272.81;5228284;28;20611;-76
2022/04/24 07:03:42;;;;;;;11.03;7.20;;;;;;;-150.27;100.00;61272.81;5229480;28;20034;-76
2022/04/24 07:06:14;;;;;;;9.10;6.13;;;;;;;-150.27;100.00;61272.81;5229946;28;20061;-77
2022/04/24 07:08:45;;;;;;;8.83;6.40;;;;;;;-150.27;100.00;61272.81;5229507;28;20042;-70
2022/04/24 07:11:17;;;;;;;9.17;6.90;;;;;;;-150.27;100.00;61272.81;5228533;28;20021;-76
2022/04/24 07:13:48;;;;;;;12.10;6.77;;;;;;;-150.27;100.00;61272.81;5229701;28;20358;-78
2022/04/24 07:16:19;;;;;;;8.27;7.03;;;;;;;-150.27;100.00;61272.81;5228883;28;20072;-77
2022/04/24 07:18:51;;;;;;;7.17;6.17;;;;;;;-150.27;100.00;61272.81;5211557;28;20137;-77
2022/04/24 07:21:22;;;;;;;9.80;6.63;;;;;;;-150.27;100.00;61272.81;5228858;28;20030;-77
2022/04/24 07:23:53;;;;;;;11.97;6.87;;;;;;;-150.27;100.00;61272.81;5229028;28;20018;-71
2022/04/24 07:26:24;;;;;;;8.47;7.37;;;;;;;-150.27;100.00;61272.81;5228196;28;20422;-77
2022/04/24 07:28:56;;;;;;;8.03;7.13;;;;;;;-150.27;100.00;61272.81;5228610;28;20025;-76
2022/04/24 07:31:28;;;;;;;9.60;6.37;;;;;;;-150.27;100.00;61272.81;5229302;28;20123;-77
2022/04/24 07:33:59;;;;;;;7.73;6.57;;;;;;;-150.27;100.00;61272.81;5210640;28;20771;-77
2022/04/24 07:36:31;;;;;;;9.57;6.27;;;;;;;-150.27;100.00;61272.81;5229451;28;20053;-77
2022/04/24 07:39:02;;;;;;;11.13;6.67;;;;;;;-150.27;100.00;61272.81;5228613;28;20478;-77
2022/04/24 07:41:33;;;;;;;6.27;5.67;;;;;;;-150.27;100.00;61272.81;5228198;28;20056;-77
2022/04/24 07:44:06;;;;;;;9.70;6.73;;;;;;;-150.27;100.00;61272.81;5228975;28;20029;-74
2022/04/24 07:46:37;;;;;;;6.50;5.43;;;;;;;-150.27;100.00;61272.81;5228995;28;20029;-77
2022/04/24 07:49:08;;;;;;;9.67;6.27;;;;;;;-150.27;100.00;61272.81;5228831;28;20087;-76
2022/04/24 07:51:39;;;;;;;12.17;6.73;;;;;;;-150.27;100.00;61272.81;5228741;28;20021;-77
2022/04/24 07:54:11;;;;;;;7.13;5.87;;;;;;;-150.27;100.00;61272.81;5228613;28;20031;-76
2022/04/24 07:56:43;;;;;;;7.43;6.23;;;;;;;-150.27;100.00;61272.81;5227593;28;20048;-77
2022/04/24 07:59:14;;;;;;;7.40;5.23;;;;;;;-150.27;100.00;61272.81;5228919;28;20044;-78
2022/04/24 08:01:46;;;;;;;7.70;5.63;;;;;;;-150.27;100.00;61272.81;5228141;28;20029;-75
2022/04/24 08:04:17;;;;;;;10.50;6.30;;;;;;;-150.27;100.00;61272.81;5228390;28;20036;-77
2022/04/24 08:06:49;;;;;;;8.05;5.45;;;;;;;-150.27;100.00;61272.81;5228524;28;20025;-76
2022/04/24 08:09:20;;;;;;;7.13;5.35;;;;;;;-150.27;100.00;61272.81;5227533;28;20053;-77
2022/04/24 08:11:51;;;;;;;10.00;5.47;;;;;;;-150.27;100.00;61272.81;5227294;28;20582;-77
2022/04/24 08:14:22;;;;;;;6.68;4.93;;;;;;;-150.27;100.00;61272.81;5209678;28;20033;-76
2022/04/24 08:16:54;;;;;;;6.38;5.68;;;;;;;-150.27;100.00;61272.81;5228070;28;20018;-76
2022/04/24 08:19:25;;;;;;;5.72;5.22;;;;;;;-150.27;100.00;61272.81;5210597;28;20037;-76
2022/04/24 08:21:56;;;;;;;8.75;5.50;;;;;;;-150.27;100.00;61272.81;5227318;28;20013;-77
2022/04/24 08:24:27;;;;;;;6.53;5.28;;;;;;;-150.27;100.00;61272.81;5228458;28;20064;-78
2022/04/24 08:26:59;;;;;;;5.82;5.18;;;;;;;-150.27;100.00;61272.81;5208536;28;20029;-77
2022/04/24 08:29:30;;;;;;;8.27;5.85;;;;;;;-150.27;100.00;61272.81;5228111;28;20029;-77
2022/04/24 08:32:02;;;;;;;6.18;4.97;;;;;;;-150.27;100.00;61272.81;5227585;28;20025;-76
2022/04/24 08:34:33;;;;;;;10.63;5.50;;;;;;;-150.27;100.00;61272.81;5227646;28;20021;-77
2022/04/24 08:37:04;;;;;;;10.20;5.50;;;;;;;-150.27;100.00;61272.81;5210073;28;20455;-77
2022/04/24 08:39:35;;;;;;;9.88;5.45;;;;;;;-150.27;100.00;61272.81;5227042;28;20026;-76
2022/04/24 08:42:09;;;;;;;9.27;6.50;;;;;;;-150.27;100.00;61272.81;5226925;28;20552;-77
2022/04/24 08:44:40;;;;;;;6.38;5.78;;;;;;;-150.27;100.00;61272.81;5227401;28;20392;-77
2022/04/24 08:47:14;;;;;;;9.30;5.85;;;;;;;-150.27;100.00;61272.81;5227611;28;20033;-77
2022/04/24 08:49:46;;;;;;;7.05;5.72;;;;;;;-150.27;100.00;61272.81;5226992;28;20049;-77
2022/04/24 08:52:19;;;;;;;9.65;6.13;;;;;;;-150.27;100.00;61272.81;5209892;28;20029;-77
2022/04/24 08:54:51;;;;;;;7.20;6.50;;;;;;;-150.27;100.00;61272.81;5226620;28;20057;-76
2022/04/24 08:57:30;;;;;;;8.93;6.28;;;;;;;-150.27;100.00;61272.81;5227017;28;20068;-76
2022/04/24 09:00:04;;;;;;;6.28;5.68;;;;;;;-150.27;100.00;61272.81;5226970;28;20025;-77
2022/04/24 09:02:35;;;;;;;6.68;6.05;;;;;;;-150.27;100.00;61272.81;5227134;28;20033;-77
2022/04/24 09:05:07;;;;;;;7.95;5.90;;;;;;;-150.27;100.00;61272.81;5232355;28;20071;-76
2022/04/24 09:07:39;;;;;;;9.68;6.13;;;;;;;-150.27;100.00;61272.81;5226980;28;20029;-77
2022/04/24 09:10:13;;;;;;;7.88;5.88;;;;;;;-150.27;100.00;61272.81;5204185;28;20049;-77
2022/04/24 09:12:51;;;;;;;8.13;5.55;;;;;;;-150.27;100.00;61272.81;5206566;28;20029;-77
2022/04/24 09:15:24;;;;;;;9.80;6.30;;;;;;;-150.27;100.00;61272.81;5206926;28;20034;-77
2022/04/24 09:18:02;;;;;;;8.60;6.05;;;;;;;-150.27;100.00;61272.81;5204540;28;20484;-76
2022/04/24 09:20:41;;;;;;;7.40;5.97;;;;;;;-150.27;100.00;61272.81;5209383;28;20018;-77
2022/04/24 09:23:12;;;;;;;8.18;5.82;;;;;;;-150.27;100.00;61272.81;5205649;28;20026;-77
2022/04/24 09:25:44;;;;;;;7.88;6.05;;;;;;;-150.27;100.00;61272.81;5204300;28;20033;-77
2022/04/24 09:28:16;;;;;;;7.68;5.90;;;;;;;-150.27;100.00;61272.81;5204625;28;20527;-77
2022/04/24 09:30:50;;;;;;;10.60;5.88;;;;;;;-150.27;100.00;61272.81;5206900;28;20088;-76
2022/04/24 09:33:21;;;;;;;8.07;5.65;;;;;;;-150.27;100.00;61272.81;5206270;28;20045;-77
2022/04/24 09:35:55;;;;;;;10.45;6.53;;;;;;;-150.27;100.00;61272.81;5206232;28;20033;-78
2022/04/24 09:38:26;;;;;;;;;;;;;;;-150.27;100.00;61272.81;5206952;28;20472;-77
2022/04/24 09:40:57;;;;;;;6.88;6.25;;;;;;;-150.27;100.00;61272.81;5205177;28;19979;-77
2022/04/24 09:43:28;;;;;;;11.05;6.28;;;;;;;-150.27;100.00;61272.81;5206329;28;20026;-76
2022/04/24 09:46:00;;;;;;;8.80;5.80;;;;;;;-150.27;100.00;61272.81;5205794;28;20057;-77
2022/04/24 09:48:31;;;;;;;9.40;6.60;;;;;;;-150.27;100.00;61272.81;5206634;28;20022;-77
2022/04/24 09:51:03;;;;;;;6.90;6.15;;;;;;;-150.27;100.00;61272.81;5205745;28;20126;-76
2022/04/24 09:53:41;;;;;;;8.43;6.38;;;;;;;-150.27;100.00;61272.81;5206594;28;20025;-77
2022/04/24 09:56:15;;;;;;;7.30;6.55;;;;;;;-150.27;100.00;61272.81;5205043;28;20114;-77
2022/04/24 09:58:46;;;;;;;;;;;;;;;-150.27;100.00;61272.81;5206703;28;20022;-77
2022/04/24 10:01:18;;;;;;;7.63;6.82;;;;;;;-150.27;100.00;61272.81;5206412;28;19924;-77
2022/04/24 10:03:50;;;;;;;7.60;6.82;;;;;;;-150.27;100.00;61272.81;5205706;28;20535;-76
2022/04/24 10:06:23;;;;;;;8.40;6.95;;;;;;;-150.27;100.00;61272.81;5205945;28;20057;-77
2022/04/24 10:08:54;;;;;;;7.18;6.47;;;;;;;-150.27;100.00;61272.81;5204475;28;20045;-74
2022/04/24 10:11:26;;;;;;;6.90;6.20;;;;;;;-150.27;100.00;61272.81;5205330;28;20026;-76
2022/04/24 10:14:04;;;;;;;7.35;6.65;;;;;;;-150.27;100.00;61272.81;5204761;28;20034;-77
2022/04/24 10:16:47;;;;;;;7.93;6.32;;;;;;;-150.27;100.00;61272.81;5206304;28;20018;-76
2022/04/24 10:19:43;;;;;;;7.28;6.57;;;;;;;-150.27;100.00;61272.81;5206283;28;20042;-77
2022/04/24 10:22:17;;;;;;;8.63;7.60;;;;;;;-150.27;100.00;61272.81;5203771;28;20037;-77
2022/04/24 10:24:48;;;;;;;7.38;6.10;;;;;;;-150.27;100.00;61272.81;5205233;28;20488;-76
2022/04/24 10:27:19;;;;;;;10.27;7.15;;;;;;;-150.27;100.00;61272.81;5204424;28;20033;-77
2022/04/24 10:29:52;;;;;;;9.15;7.18;;;;;;;-150.27;100.00;61272.81;5204095;28;20077;-76
2022/04/24 10:32:27;;;;;;;8.00;6.57;;;;;;;-150.27;100.00;61272.81;5204294;28;20772;-76
2022/04/24 10:35:00;;;;;;;6.80;6.18;;;;;;;-150.27;100.00;61272.81;5209195;28;20033;-75
2022/04/24 10:37:32;;;;;;;9.45;6.82;;;;;;;-150.27;100.00;61272.81;5211026;28;20092;-75
2022/04/24 10:40:13;;;;;;;7.97;5.93;;;;;;;-150.27;100.00;61272.81;5208533;28;20022;-76
2022/04/24 10:42:44;;;;;;;7.40;6.38;;;;;;;-150.27;100.00;61272.81;5208392;28;20021;-76
2022/04/24 10:45:19;;;;;;;10.18;6.47;;;;;;;-150.27;100.00;61272.81;5209112;28;20049;-76
2022/04/24 10:47:52;;;;;;;7.47;6.68;;;;;;;-150.27;100.00;61272.81;5209307;28;20033;-76
2022/04/24 10:50:24;;;;;;;7.88;5.28;;;;;;;-150.27;100.00;61272.81;5208840;28;20095;-75
2022/04/24 10:52:55;;;;;;;6.90;6.13;;;;;;;-150.27;100.00;61272.81;5209442;28;20477;-76
2022/04/24 10:55:30;;;;;;;8.13;4.90;;;;;;;-150.27;100.00;61272.81;5207240;28;20098;-76
2022/04/24 10:58:03;;;;;;;7.22;6.28;;;;;;;-150.27;100.00;61272.81;5208953;28;20030;-76
2022/04/24 11:00:35;;;;;;;;;;;;;;;-150.27;100.00;61272.81;5209991;28;20770;-76
2022/04/24 11:03:16;;;;;;;8.48;5.10;;;;;;;-150.27;100.00;61272.81;5208432;28;20000;-78
2022/04/24 11:05:52;;;;;;;9.15;5.60;;;;;;;-150.27;100.00;61272.81;5208907;28;20025;-77
2022/04/24 11:08:23;;;;;;;8.65;5.50;;;;;;;-150.27;100.00;61272.81;5208223;28;20049;-77
2022/04/24 11:11:04;;;;;;;9.35;5.35;;;;;;;-150.27;100.00;61272.81;5228361;28;20067;-77
2022/04/24 11:13:36;;;;;;;9.73;5.47;;;;;;;-150.27;100.00;61272.81;5229201;28;20083;-77
2022/04/24 11:16:08;;;;;;;6.63;5.97;;;;;;;-150.27;100.00;61272.81;5229654;28;20022;-77
2022/04/24 11:18:45;;;;;;;8.88;5.93;;;;;;;-150.27;100.00;61272.81;5228470;28;20017;-77
2022/04/24 11:21:19;;;;;;;10.43;5.93;;;;;;;-150.27;100.00;61272.81;5229664;28;20033;-76
2022/04/24 11:23:58;;;;;;;18.85;6.40;;;;;;;-150.27;100.00;61272.81;5228759;28;20044;-76
2022/04/24 11:26:29;;;;;;;7.18;5.35;;;;;;;-150.27;100.00;61272.81;5228463;28;20116;-77
2022/04/24 11:29:08;;;;;;;6.43;5.82;;;;;;;-150.27;100.00;61272.81;5211187;28;20199;-77
2022/04/24 11:31:47;;;;;;;6.47;5.32;;;;;;;-150.27;100.00;61272.81;5229348;28;20076;-77